createdAt,value
2022-08-31T00:00:13.575Z,3.60
2022-08-31T00:02:59.304Z,3.95
2022-08-31T00:05:26.666Z,3.47
2022-08-31T00:07:55.575Z,3.30
2022-08-31T00:10:32.459Z,3.70
2022-08-31T00:13:01.173Z,3.92
2022-08-31T00:15:30.403Z,3.15
2022-08-31T00:17:58.126Z,3.72
2022-08-31T00:20:33.192Z,3.97
2022-08-31T00:23:06.944Z,3.70
2022-08-31T00:25:34.477Z,3.65
2022-08-31T00:28:01.994Z,3.60
2022-08-31T00:30:29.341Z,3.60
2022-08-31T00:32:57.034Z,4.18
2022-08-31T00:35:25.944Z,3.78
2022-08-31T00:37:52.784Z,3.35
2022-08-31T00:40:19.754Z,3.80
2022-08-31T00:42:46.592Z,3.83
2022-08-31T00:45:13.835Z,3.33
2022-08-31T00:47:40.637Z,3.53
2022-08-31T00:50:10.564Z,3.55
2022-08-31T00:52:45.887Z,3.85
2022-08-31T00:55:17.902Z,3.83
2022-08-31T00:57:48.395Z,3.63
2022-08-31T01:00:19.042Z,4.07
2022-08-31T01:02:45.994Z,3.58
2022-08-31T01:05:13.680Z,3.53
2022-08-31T01:07:41.307Z,3.80
2022-08-31T01:10:10.181Z,4.00
2022-08-31T01:12:37.422Z,4.32
2022-08-31T01:15:07.208Z,3.60
2022-08-31T01:17:35.224Z,4.18
2022-08-31T01:20:49.061Z,4.18
2022-08-31T01:23:42.987Z,3.83
2022-08-31T01:26:13.361Z,4.40
2022-08-31T01:28:40.139Z,4.30
2022-08-31T01:31:10.076Z,3.75
2022-08-31T01:33:39.154Z,4.05
2022-08-31T01:36:11.045Z,3.85
2022-08-31T01:38:39.794Z,4.03
2022-08-31T01:41:06.754Z,4.22
2022-08-31T01:43:35.607Z,3.65
2022-08-31T01:46:10.467Z,4.18
2022-08-31T01:48:41.343Z,4.43
2022-08-31T01:51:10.748Z,4.03
2022-08-31T01:53:42.155Z,4.32
2022-08-31T01:56:15.306Z,3.60
2022-08-31T01:58:42.122Z,3.80
2022-08-31T02:01:35.557Z,3.88
2022-08-31T02:04:05.421Z,3.88
2022-08-31T02:06:33.175Z,3.75
2022-08-31T02:09:00.499Z,3.80
2022-08-31T02:11:27.333Z,4.13
2022-08-31T02:13:54.041Z,4.07
2022-08-31T02:16:20.808Z,4.20
2022-08-31T02:18:47.568Z,3.47
2022-08-31T02:21:14.382Z,3.95
2022-08-31T02:23:41.996Z,4.25
2022-08-31T02:26:09.484Z,4.20
2022-08-31T02:28:37.442Z,4.40
2022-08-31T02:31:04.815Z,4.60
2022-08-31T02:33:39.725Z,4.75
2022-08-31T02:36:07.068Z,4.80
2022-08-31T02:38:39.285Z,4.53
2022-08-31T02:41:06.599Z,5.25
2022-08-31T02:43:35.238Z,5.03
2022-08-31T02:46:02.428Z,5.03
2022-08-31T02:48:35.907Z,4.28
2022-08-31T02:51:06.661Z,5.05
2022-08-31T02:53:33.529Z,4.70
2022-08-31T02:56:00.928Z,4.50
2022-08-31T02:58:27.795Z,4.43
2022-08-31T03:00:55.084Z,4.20
2022-08-31T03:03:22.256Z,3.75
2022-08-31T03:05:49.671Z,4.57
2022-08-31T03:08:17.557Z,4.90
2022-08-31T03:10:46.608Z,4.65
2022-08-31T03:13:13.478Z,5.00
2022-08-31T03:15:42.149Z,5.05
2022-08-31T03:18:08.947Z,5.10
2022-08-31T03:20:36.225Z,5.00
2022-08-31T03:23:05.489Z,5.30
2022-08-31T03:25:32.377Z,4.47
2022-08-31T03:27:59.825Z,4.30
2022-08-31T03:30:31.360Z,4.82
2022-08-31T03:33:06.466Z,4.70
2022-08-31T03:35:35.554Z,4.53
2022-08-31T03:38:02.673Z,4.88
2022-08-31T03:40:30.309Z,4.30
2022-08-31T03:43:00.638Z,4.18
2022-08-31T03:45:28.515Z,4.22
2022-08-31T03:47:55.577Z,4.80
2022-08-31T03:50:24.353Z,4.47
2022-08-31T03:53:11.837Z,4.30
2022-08-31T03:55:40.839Z,4.13
2022-08-31T03:58:08.820Z,4.05
2022-08-31T04:00:37.126Z,4.60
2022-08-31T04:03:11.478Z,4.78
2022-08-31T04:06:01.176Z,4.82
2022-08-31T04:08:46.359Z,4.82
2022-08-31T04:11:45.878Z,4.65
2022-08-31T04:14:48.128Z,4.70
2022-08-31T04:17:33.670Z,4.57
2022-08-31T04:20:24.489Z,4.68
2022-08-31T04:22:56.974Z,4.03
2022-08-31T04:25:38.865Z,5.13
2022-08-31T04:28:05.889Z,4.55
2022-08-31T04:30:32.597Z,4.65
2022-08-31T04:33:01.943Z,4.88
2022-08-31T04:35:28.762Z,4.50
2022-08-31T04:37:55.465Z,4.50
2022-08-31T04:40:25.492Z,4.57
2022-08-31T04:42:53.544Z,4.43
2022-08-31T04:45:24.042Z,5.50
2022-08-31T04:47:51.525Z,5.90
2022-08-31T04:50:19.173Z,4.70
2022-08-31T04:53:06.360Z,5.05
2022-08-31T04:55:33.150Z,5.05
2022-08-31T04:57:59.948Z,5.10
2022-08-31T05:00:27.282Z,4.97
2022-08-31T05:03:12.543Z,5.13
2022-08-31T05:05:41.288Z,4.88
2022-08-31T05:08:08.438Z,4.30
2022-08-31T05:10:35.282Z,4.82
2022-08-31T05:13:02.507Z,5.05
2022-08-31T05:15:31.199Z,4.70
2022-08-31T05:17:58.401Z,4.57
2022-08-31T05:20:25.853Z,4.22
2022-08-31T05:22:52.579Z,4.50
2022-08-31T05:25:19.283Z,4.78
2022-08-31T05:27:48.065Z,5.18
2022-08-31T05:30:15.012Z,4.78
2022-08-31T05:32:45.822Z,5.40
2022-08-31T05:35:12.970Z,5.30
2022-08-31T05:37:42.385Z,5.22
2022-08-31T05:40:10.550Z,5.07
2022-08-31T05:42:37.407Z,5.38
2022-08-31T05:45:04.641Z,5.15
2022-08-31T05:47:31.421Z,5.38
2022-08-31T05:49:58.770Z,5.80
2022-08-31T05:52:25.455Z,5.38
2022-08-31T05:54:54.119Z,5.05
2022-08-31T05:57:25.878Z,5.35
2022-08-31T05:59:54.263Z,5.30
2022-08-31T06:02:21.483Z,5.38
2022-08-31T06:04:48.603Z,5.30
2022-08-31T06:07:19.776Z,5.88
2022-08-31T06:09:53.607Z,5.40
2022-08-31T06:12:22.931Z,5.20
2022-08-31T06:14:52.839Z,5.30
2022-08-31T06:17:20.427Z,5.63
2022-08-31T06:19:47.387Z,5.38
2022-08-31T06:22:14.268Z,5.78
2022-08-31T06:24:41.002Z,5.35
2022-08-31T06:27:07.674Z,5.40
2022-08-31T06:29:36.778Z,5.63
2022-08-31T06:32:08.199Z,5.43
2022-08-31T06:34:39.385Z,5.43
2022-08-31T06:37:08.051Z,5.45
2022-08-31T06:40:07.973Z,5.75
2022-08-31T06:42:47.580Z,5.78
2022-08-31T06:45:46.824Z,6.15
2022-08-31T06:48:35.642Z,5.47
2022-08-31T06:51:03.640Z,5.65
2022-08-31T06:53:30.589Z,5.78
2022-08-31T06:56:22.884Z,5.80
2022-08-31T06:59:09.470Z,6.00
2022-08-31T07:02:08.075Z,5.63
2022-08-31T07:04:37.214Z,6.50
2022-08-31T07:07:05.984Z,5.82
2022-08-31T07:09:33.606Z,5.72
2022-08-31T07:12:00.329Z,5.75
2022-08-31T07:14:27.897Z,5.80
2022-08-31T07:16:58.124Z,5.72
2022-08-31T07:19:26.089Z,6.55
2022-08-31T07:21:56.515Z,5.78
2022-08-31T07:24:27.809Z,5.97
2022-08-31T07:26:58.233Z,5.47
2022-08-31T07:29:37.731Z,5.47
2022-08-31T07:32:04.854Z,6.28
2022-08-31T07:34:33.886Z,6.55
2022-08-31T07:37:41.923Z,7.00
2022-08-31T07:40:28.503Z,6.53
2022-08-31T07:42:56.532Z,7.38
2022-08-31T07:45:29.061Z,6.75
2022-08-31T07:47:59.729Z,7.43
2022-08-31T07:50:31.677Z,6.78
2022-08-31T07:53:11.548Z,6.97
2022-08-31T07:55:47.911Z,7.68
2022-08-31T07:58:31.199Z,8.38
2022-08-31T08:01:00.524Z,8.65
2022-08-31T08:03:30.054Z,8.23
2022-08-31T08:06:17.942Z,7.78
2022-08-31T08:09:24.443Z,7.97
2022-08-31T08:12:06.323Z,8.38
2022-08-31T08:14:43.056Z,8.98
2022-08-31T08:17:39.201Z,8.40
2022-08-31T08:20:13.696Z,9.02
2022-08-31T08:22:54.147Z,8.98
2022-08-31T08:25:34.776Z,9.70
2022-08-31T08:28:39.692Z,9.20
2022-08-31T08:31:14.283Z,9.80
2022-08-31T08:33:41.374Z,8.50
2022-08-31T08:36:08.555Z,8.65
2022-08-31T08:38:39.604Z,8.80
2022-08-31T08:41:13.172Z,8.90
2022-08-31T08:43:52.340Z,9.25
2022-08-31T08:46:35.984Z,9.48
2022-08-31T08:49:15.105Z,8.90
2022-08-31T08:51:43.622Z,9.25
2022-08-31T08:54:13.493Z,8.77
2022-08-31T08:56:49.212Z,10.00
2022-08-31T08:59:20.690Z,9.13
2022-08-31T09:01:54.007Z,9.75
2022-08-31T09:04:59.857Z,9.95
2022-08-31T09:08:10.371Z,10.40
2022-08-31T09:10:55.782Z,9.43
2022-08-31T09:13:44.235Z,9.68
2022-08-31T09:16:20.650Z,9.55
2022-08-31T09:18:56.881Z,10.32
2022-08-31T09:21:29.482Z,10.57
2022-08-31T09:24:13.293Z,10.18
2022-08-31T09:27:17.796Z,10.88
2022-08-31T09:29:54.065Z,10.10
2022-08-31T09:32:31.474Z,9.80
2022-08-31T09:35:17.103Z,10.02
2022-08-31T09:37:57.153Z,9.70
2022-08-31T09:40:48.359Z,10.38
2022-08-31T09:43:24.981Z,10.40
2022-08-31T09:46:00.715Z,9.90
2022-08-31T09:48:52.011Z,10.48
2022-08-31T09:51:36.917Z,9.75
2022-08-31T09:54:34.709Z,9.77
2022-08-31T09:57:04.985Z,18.15
2022-08-31T09:59:43.895Z,10.43
2022-08-31T10:02:22.744Z,10.48
2022-08-31T10:04:55.556Z,10.35
2022-08-31T10:07:31.922Z,10.98
2022-08-31T10:10:20.419Z,10.20
2022-08-31T10:13:16.201Z,11.05
2022-08-31T10:16:14.687Z,10.77
2022-08-31T10:18:57.658Z,10.75
2022-08-31T10:21:40.687Z,10.73
2022-08-31T10:24:28.427Z,11.13
2022-08-31T10:27:32.341Z,11.00
2022-08-31T10:30:06.926Z,11.57
2022-08-31T10:32:42.560Z,11.70
2022-08-31T10:35:21.396Z,10.55
2022-08-31T10:37:55.508Z,10.43
2022-08-31T10:40:32.230Z,10.57
2022-08-31T10:43:29.270Z,11.40
2022-08-31T10:45:59.938Z,10.95
2022-08-31T10:48:27.839Z,11.00
2022-08-31T10:51:14.296Z,11.00
2022-08-31T10:54:04.326Z,11.13
2022-08-31T10:56:50.692Z,11.00
2022-08-31T10:59:38.275Z,11.18
2022-08-31T11:02:27.147Z,10.75
2022-08-31T11:05:01.411Z,11.20
2022-08-31T11:08:03.994Z,11.07
2022-08-31T11:10:49.332Z,10.43
2022-08-31T11:13:39.306Z,11.20
2022-08-31T11:16:27.192Z,10.07
2022-08-31T11:19:13.130Z,15.98
2022-08-31T11:21:45.718Z,10.25
2022-08-31T11:24:39.756Z,11.15
2022-08-31T11:27:23.708Z,9.45
2022-08-31T11:29:56.829Z,9.77
2022-08-31T11:32:39.813Z,8.95
2022-08-31T11:35:10.028Z,8.73
2022-08-31T11:37:55.795Z,8.32
2022-08-31T11:40:44.185Z,8.10
2022-08-31T11:43:15.297Z,8.50
2022-08-31T11:45:43.011Z,8.00
2022-08-31T11:48:51.610Z,10.73
2022-08-31T11:51:44.995Z,7.93
2022-08-31T11:54:13.670Z,8.35
2022-08-31T11:56:47.546Z,8.20
2022-08-31T11:59:32.714Z,7.65
2022-08-31T12:02:23.428Z,7.80
2022-08-31T12:04:53.638Z,6.75
2022-08-31T12:07:35.983Z,26.10
2022-08-31T12:10:15.461Z,8.30
2022-08-31T12:12:55.047Z,8.05
2022-08-31T12:15:27.787Z,7.72
2022-08-31T12:18:03.922Z,7.68
2022-08-31T12:21:26.736Z,7.85
2022-08-31T12:24:18.895Z,7.53
2022-08-31T12:26:55.020Z,6.05
2022-08-31T12:29:28.278Z,10.27
2022-08-31T12:32:02.214Z,6.78
2022-08-31T12:34:30.056Z,8.90
2022-08-31T12:36:56.753Z,5.72
2022-08-31T12:39:26.267Z,6.53
2022-08-31T12:41:57.730Z,5.70
2022-08-31T12:44:31.754Z,5.22
2022-08-31T12:47:04.563Z,5.15
2022-08-31T12:50:08.993Z,4.85
2022-08-31T12:53:32.057Z,5.07
2022-08-31T12:56:08.618Z,4.93
2022-08-31T12:58:44.363Z,4.45
2022-08-31T13:01:13.945Z,5.03
2022-08-31T13:03:51.754Z,4.50
2022-08-31T13:06:28.652Z,4.20
2022-08-31T13:08:55.597Z,4.20
2022-08-31T13:11:39.786Z,3.50
2022-08-31T13:14:28.266Z,3.88
2022-08-31T13:17:06.746Z,3.95
2022-08-31T13:19:35.223Z,3.90
2022-08-31T13:22:09.748Z,4.07
2022-08-31T13:24:41.367Z,3.92
2022-08-31T13:29:56.045Z,3.60
2022-08-31T13:32:27.554Z,3.75
2022-08-31T13:34:54.960Z,4.00
2022-08-31T13:37:31.512Z,2.97
2022-08-31T13:40:08.811Z,3.15
2022-08-31T13:42:42.784Z,3.30
2022-08-31T13:45:25.196Z,3.28
2022-08-31T13:47:57.658Z,3.53
2022-08-31T13:50:30.873Z,3.25
2022-08-31T13:53:25.432Z,3.10
2022-08-31T13:55:48.878Z,3.40
2022-08-31T13:58:28.883Z,3.25
2022-08-31T14:01:32.703Z,3.20
2022-08-31T14:04:00.048Z,3.40
2022-08-31T14:06:34.932Z,2.72
2022-08-31T14:09:13.404Z,3.05
2022-08-31T14:11:52.917Z,2.88
2022-08-31T14:14:29.953Z,2.88
2022-08-31T14:16:58.521Z,3.33
2022-08-31T14:19:33.628Z,4.80
2022-08-31T14:22:33.064Z,4.90
2022-08-31T14:25:00.929Z,4.35
2022-08-31T14:27:29.309Z,4.30
2022-08-31T14:29:57.678Z,4.53
2022-08-31T14:32:25.721Z,4.38
2022-08-31T14:34:53.428Z,4.05
2022-08-31T14:37:21.090Z,4.72
2022-08-31T14:39:57.734Z,4.68
2022-08-31T14:42:28.988Z,4.72
2022-08-31T14:45:09.439Z,4.15
2022-08-31T14:47:44.042Z,4.15
2022-08-31T14:50:14.202Z,4.57
2022-08-31T14:52:46.716Z,4.10
2022-08-31T14:55:15.216Z,4.00
2022-08-31T14:57:45.691Z,4.18
2022-08-31T15:00:23.154Z,4.30
2022-08-31T15:02:54.901Z,4.40
2022-08-31T15:07:52.978Z,3.92
2022-08-31T15:10:24.302Z,3.70
2022-08-31T15:12:51.728Z,4.00
2022-08-31T15:15:20.456Z,3.70
2022-08-31T15:17:50.301Z,3.65
2022-08-31T15:20:21.541Z,3.58
2022-08-31T15:22:49.089Z,3.22
2022-08-31T15:25:17.091Z,3.58
2022-08-31T15:27:44.391Z,3.28
2022-08-31T15:30:14.717Z,3.45
2022-08-31T15:32:47.869Z,3.85
2022-08-31T15:35:18.973Z,3.55
2022-08-31T15:37:58.883Z,3.95
2022-08-31T15:40:29.146Z,3.95
2022-08-31T15:42:56.153Z,3.83
2022-08-31T15:45:23.566Z,3.55
2022-08-31T15:48:08.967Z,3.90
2022-08-31T15:50:36.095Z,3.55
2022-08-31T15:53:10.838Z,3.65
2022-08-31T15:55:40.845Z,4.68
2022-08-31T15:58:09.542Z,4.72
2022-08-31T16:00:37.464Z,4.43
2022-08-31T16:03:06.285Z,4.78
2022-08-31T16:05:39.411Z,4.63
2022-08-31T16:08:11.554Z,4.93
2022-08-31T16:10:43.188Z,5.47
2022-08-31T16:13:10.237Z,5.20
2022-08-31T16:15:38.302Z,4.22
2022-08-31T16:18:06.886Z,4.60
2022-08-31T16:20:34.834Z,4.57
2022-08-31T16:23:03.174Z,4.22
2022-08-31T16:25:47.629Z,4.22
2022-08-31T16:28:16.213Z,4.22
2022-08-31T16:30:45.182Z,5.80
2022-08-31T16:33:12.328Z,6.90
2022-08-31T16:35:39.465Z,6.82
2022-08-31T16:38:07.296Z,6.47
2022-08-31T16:40:35.681Z,7.10
2022-08-31T16:43:03.555Z,6.47
2022-08-31T16:45:30.529Z,7.80
2022-08-31T16:48:15.957Z,7.55
2022-08-31T16:50:47.722Z,7.15
2022-08-31T16:53:18.445Z,7.68
2022-08-31T16:55:47.628Z,8.82
2022-08-31T16:58:29.622Z,10.57
2022-08-31T17:01:03.687Z,10.35
2022-08-31T17:03:30.546Z,8.32
2022-08-31T17:05:57.345Z,7.88
2022-08-31T17:08:24.093Z,8.18
2022-08-31T17:10:51.468Z,7.93
2022-08-31T17:13:18.227Z,6.95
2022-08-31T17:15:45.044Z,7.47
2022-08-31T17:18:11.849Z,8.13
2022-08-31T17:20:40.241Z,7.72
2022-08-31T17:23:06.990Z,7.22
2022-08-31T17:25:35.898Z,7.43
2022-08-31T17:28:07.680Z,7.60
2022-08-31T17:30:34.690Z,6.97
2022-08-31T17:33:01.612Z,8.35
2022-08-31T17:35:29.076Z,8.27
2022-08-31T17:37:56.615Z,8.10
2022-08-31T17:40:23.524Z,7.63
2022-08-31T17:42:53.495Z,7.65
2022-08-31T17:45:21.857Z,8.23
2022-08-31T17:47:48.606Z,7.22
2022-08-31T17:50:19.740Z,7.97
2022-08-31T17:52:47.543Z,8.85
2022-08-31T17:55:14.606Z,8.23
2022-08-31T17:57:42.396Z,8.43
2022-08-31T18:00:10.004Z,8.55
2022-08-31T18:02:37.803Z,8.15
2022-08-31T18:05:11.859Z,8.50
2022-08-31T18:07:39.751Z,8.73
2022-08-31T18:10:06.914Z,8.88
2022-08-31T18:12:40.989Z,8.32
2022-08-31T18:15:13.078Z,8.27
2022-08-31T18:20:08.338Z,7.75
2022-08-31T18:22:35.123Z,8.13
2022-08-31T18:25:02.068Z,9.20
2022-08-31T18:27:29.366Z,8.52
2022-08-31T18:29:56.685Z,8.57
2022-08-31T18:32:27.127Z,8.23
2022-08-31T18:34:57.156Z,8.43
2022-08-31T18:37:25.779Z,7.90
2022-08-31T18:40:11.960Z,7.82
2022-08-31T18:42:57.679Z,7.68
2022-08-31T18:45:26.280Z,7.57
2022-08-31T18:50:44.957Z,8.13
2022-08-31T18:53:15.309Z,7.40
2022-08-31T18:55:44.168Z,8.25
2022-08-31T18:58:11.783Z,7.55
2022-08-31T19:00:40.588Z,8.00
2022-08-31T19:03:07.703Z,7.13
2022-08-31T19:05:39.146Z,7.80
2022-08-31T19:08:06.263Z,8.15
2022-08-31T19:10:34.849Z,8.73
2022-08-31T19:13:07.480Z,8.13
2022-08-31T19:15:39.655Z,8.20
2022-08-31T19:18:08.419Z,8.27
2022-08-31T19:20:35.863Z,9.05
2022-08-31T19:23:03.306Z,8.30
2022-08-31T19:25:32.105Z,8.63
2022-08-31T19:28:01.587Z,8.32
2022-08-31T19:30:29.353Z,8.02
2022-08-31T19:32:56.852Z,8.32
2022-08-31T19:35:26.948Z,8.18
2022-08-31T19:37:56.733Z,8.07
2022-08-31T19:40:43.039Z,7.53
2022-08-31T19:46:15.961Z,7.82
2022-08-31T19:48:44.727Z,7.35
2022-08-31T19:51:14.568Z,8.02
2022-08-31T19:53:45.368Z,7.38
2022-08-31T19:56:19.082Z,6.97
2022-08-31T19:58:48.666Z,7.53
2022-08-31T20:01:18.271Z,7.20
2022-08-31T20:03:48.121Z,6.80
2022-08-31T20:06:19.431Z,7.13
2022-08-31T20:08:47.976Z,7.80
2022-08-31T20:11:21.840Z,7.20
2022-08-31T20:13:49.742Z,10.73
2022-08-31T20:16:17.723Z,7.95
2022-08-31T20:18:48.773Z,6.88
2022-08-31T20:21:19.327Z,7.90
2022-08-31T20:23:53.631Z,6.85
2022-08-31T20:26:27.875Z,6.90
2022-08-31T20:29:09.288Z,6.82
2022-08-31T20:31:40.335Z,7.28
2022-08-31T20:34:08.042Z,6.65
2022-08-31T20:36:38.191Z,6.50
2022-08-31T20:39:08.663Z,6.47
2022-08-31T20:41:40.459Z,6.47
2022-08-31T20:44:12.114Z,6.53
2022-08-31T20:47:04.302Z,6.38
2022-08-31T20:49:37.605Z,6.57
2022-08-31T20:52:05.608Z,6.88
2022-08-31T20:54:33.271Z,6.78
2022-08-31T20:57:03.010Z,6.43
2022-08-31T20:59:31.462Z,6.43
2022-08-31T21:02:00.013Z,6.97
2022-08-31T21:04:29.218Z,6.80
2022-08-31T21:07:00.476Z,7.03
2022-08-31T21:09:27.361Z,7.00
2022-08-31T21:11:56.062Z,6.43
2022-08-31T21:14:27.332Z,6.78
2022-08-31T21:16:56.794Z,6.22
2022-08-31T21:19:24.327Z,6.57
2022-08-31T21:21:56.516Z,6.10
2022-08-31T21:24:23.417Z,6.43
2022-08-31T21:26:59.200Z,6.57
2022-08-31T21:29:28.250Z,6.93
2022-08-31T21:32:01.283Z,6.60
2022-08-31T21:34:30.499Z,6.97
2022-08-31T21:36:57.388Z,6.85
2022-08-31T21:39:25.068Z,6.88
2022-08-31T21:41:52.130Z,7.22
2022-08-31T21:44:24.370Z,7.00
2022-08-31T21:46:51.457Z,7.10
2022-08-31T21:49:19.569Z,6.90
2022-08-31T21:51:53.142Z,7.93
2022-08-31T21:54:22.838Z,8.02
2022-08-31T21:56:52.796Z,7.80
2022-08-31T21:59:22.106Z,7.85
2022-08-31T22:01:51.940Z,7.10
2022-08-31T22:04:20.998Z,7.63
2022-08-31T22:06:49.783Z,19.42
2022-08-31T22:09:22.568Z,14.65
2022-08-31T22:11:54.036Z,30.50
2022-08-31T22:14:26.171Z,11.80
2022-08-31T22:16:56.260Z,12.73
2022-08-31T22:19:25.687Z,12.82
2022-08-31T22:21:56.590Z,9.98
2022-08-31T22:24:28.154Z,9.23
2022-08-31T22:26:58.609Z,7.78
2022-08-31T22:29:28.756Z,8.63
2022-08-31T22:32:01.896Z,7.80
2022-08-31T22:34:28.975Z,7.70
2022-08-31T22:36:56.566Z,7.90
2022-08-31T22:39:28.412Z,8.23
2022-08-31T22:41:57.821Z,7.68
2022-08-31T22:44:27.149Z,8.60
2022-08-31T22:46:57.187Z,9.00
2022-08-31T22:49:26.169Z,8.00
2022-08-31T22:51:54.587Z,9.02
2022-08-31T22:54:23.101Z,9.15
2022-08-31T22:56:50.638Z,17.20
2022-08-31T22:59:24.833Z,12.32
2022-08-31T23:01:55.304Z,13.65
2022-08-31T23:04:25.112Z,15.65
2022-08-31T23:06:53.414Z,10.82
2022-08-31T23:09:21.962Z,11.07
2022-08-31T23:11:51.674Z,13.80
2022-08-31T23:14:21.367Z,11.10
2022-08-31T23:16:59.326Z,11.75
2022-08-31T23:19:54.253Z,12.38
2022-08-31T23:22:21.995Z,12.63
2022-08-31T23:24:51.891Z,12.73
2022-08-31T23:27:21.750Z,12.57
2022-08-31T23:29:52.459Z,13.23
2022-08-31T23:32:22.109Z,13.57
2022-08-31T23:34:52.540Z,14.07
2022-08-31T23:37:23.003Z,13.75
2022-08-31T23:39:53.980Z,13.88
2022-08-31T23:42:23.146Z,14.73
2022-08-31T23:44:49.917Z,13.70
2022-08-31T23:47:20.288Z,13.98
2022-08-31T23:49:50.693Z,13.68
2022-08-31T23:52:21.309Z,13.90
2022-08-31T23:54:50.478Z,14.07
2022-08-31T23:57:31.375Z,13.82
